Time;durP1;ratioP1;P1;durP2;ratioP2;P2;SDS_P1;SDS_P2;PMS_P1;PMS_P2;Temp;Humidity;BMP_temperature;BMP_pressure;BME280_temperature;BME280_humidity;BME280_pressure;Samples;Min_cycle;Max_cycle;Signal;HPM_P1;HPM_P2
2023/04/10 00:00:06;;;;;;;101.68;59.30;;;15.50;80.50;;;;;;4972871;28;89991;-56
2023/04/10 00:02:32;;;;;;;101.07;59.63;;;15.50;80.50;;;;;;4974745;28;94421;-58
2023/04/10 00:04:59;;;;;;;101.45;58.85;;;15.50;80.50;;;;;;4982100;28;88521;-54
2023/04/10 00:07:25;;;;;;;100.38;58.70;;;15.50;81.20;;;;;;4983947;28;89991;-57
2023/04/10 00:09:51;;;;;;;100.47;58.85;;;15.40;80.40;;;;;;4982634;28;90027;-56
2023/04/10 00:12:17;;;;;;;104.00;59.22;;;15.50;80.30;;;;;;4981828;28;90542;-51
2023/04/10 00:14:43;;;;;;;100.35;58.47;;;15.50;80.30;;;;;;4965608;28;89956;-57
2023/04/10 00:17:09;;;;;;;102.38;58.85;;;15.50;80.30;;;;;;4979270;28;89386;-57
2023/04/10 00:19:35;;;;;;;101.32;59.55;;;15.40;80.20;;;;;;4986131;28;90153;-52
2023/04/10 00:22:00;;;;;;;99.13;58.42;;;15.40;80.20;;;;;;4982210;28;90796;-50
2023/04/10 00:24:26;;;;;;;100.95;58.72;;;15.50;80.20;;;;;;4979746;28;94855;-57
2023/04/10 00:26:51;;;;;;;97.85;58.20;;;15.40;80.20;;;;;;4978977;28;91481;-57
2023/04/10 00:29:17;;;;;;;99.32;58.25;;;15.40;80.10;;;;;;4979754;28;90077;-56
2023/04/10 00:31:43;;;;;;;99.05;57.80;;;15.40;80.10;;;;;;4984570;28;89966;-55
2023/04/10 00:34:09;;;;;;;98.32;57.63;;;15.40;80.00;;;;;;4982907;28;89233;-57
2023/04/10 00:36:35;;;;;;;99.68;57.28;;;15.40;80.00;;;;;;4980147;28;90553;-57
2023/04/10 00:39:00;;;;;;;99.95;57.58;;;15.40;80.00;;;;;;4964207;28;91869;-53
2023/04/10 00:41:26;;;;;;;98.75;58.08;;;15.40;79.90;;;;;;4981675;28;89545;-58
2023/04/10 00:43:56;;;;;;;100.78;57.85;;;15.40;80.00;;;;;;4980938;28;89623;-59
2023/04/10 00:46:23;;;;;;;97.10;56.97;;;15.40;79.90;;;;;;4981522;28;90749;-58
2023/04/10 00:48:51;;;;;;;98.15;57.47;;;15.40;79.90;;;;;;4978535;28;90379;-58
2023/04/10 00:51:19;;;;;;;99.18;57.88;;;15.40;79.90;;;;;;4967494;28;89483;-59
2023/04/10 00:53:51;;;;;;;98.60;57.65;;;15.30;79.70;;;;;;4978287;28;89367;-57
2023/04/10 00:56:18;;;;;;;99.03;57.95;;;15.40;79.90;;;;;;4973947;28;89615;-59
2023/04/10 00:58:44;;;;;;;98.10;57.33;;;15.30;79.70;;;;;;4979158;28;89555;-57
2023/04/10 01:01:10;;;;;;;96.80;57.33;;;15.40;79.80;;;;;;4976579;28;91890;-59
2023/04/10 01:03:37;;;;;;;98.43;57.47;;;15.40;79.70;;;;;;4975782;28;89397;-57
2023/04/10 01:06:03;;;;;;;98.65;57.70;;;15.40;79.70;;;;;;4981117;28;89276;-57
2023/04/10 01:08:53;;;;;;;97.97;57.55;;;15.40;79.70;;;;;;4983771;28;89722;-58
2023/04/10 01:11:40;;;;;;;99.32;57.72;;;15.30;79.60;;;;;;4980425;28;90034;-55
2023/04/10 01:14:19;;;;;;;96.55;57.25;;;15.30;79.60;;;;;;4985244;28;88968;-57
2023/04/10 01:16:57;;;;;;;96.60;57.25;;;15.30;79.50;;;;;;4979559;28;90297;-54
2023/04/10 01:19:41;;;;;;;96.53;57.30;;;15.30;79.50;;;;;;4982150;28;89103;-57
2023/04/10 01:22:10;;;;;;;95.90;56.50;;;15.30;79.40;;;;;;4976549;28;89568;-59
2023/04/10 01:25:03;;;;;;;96.38;56.67;;;15.30;79.40;;;;;;4965242;28;89143;-58
2023/04/10 01:28:15;;;;;;;95.80;56.58;;;15.30;79.40;;;;;;4981736;28;92670;-59
2023/04/10 01:30:42;;;;;;;95.60;56.60;;;15.30;79.50;;;;;;4948617;28;90520;-58
2023/04/10 01:33:12;;;;;;;95.65;56.97;;;15.30;79.30;;;;;;4963211;28;89638;-59
2023/04/10 01:35:41;;;;;;;98.10;57.08;;;15.30;79.40;;;;;;4959811;28;89885;-58
2023/04/10 01:38:08;;;;;;;95.22;56.13;;;15.30;79.40;;;;;;4963358;28;89962;-44
2023/04/10 01:40:38;;;;;;;95.30;56.05;;;15.30;79.30;;;;;;4961148;28;89437;-56
2023/04/10 01:43:07;;;;;;;94.07;56.28;;;15.30;79.40;;;;;;4958635;28;90397;-54
2023/04/10 01:45:32;;;;;;;94.53;55.90;;;15.20;79.20;;;;;;4954174;28;88765;-59
2023/04/10 01:47:59;;;;;;;95.13;56.42;;;15.20;79.20;;;;;;4946844;28;90329;-54
2023/04/10 01:50:27;;;;;;;95.80;55.75;;;15.20;79.30;;;;;;4953496;28;89447;-54
2023/04/10 01:52:53;;;;;;;95.72;56.17;;;15.20;79.20;;;;;;4948342;28;90364;-56
2023/04/10 01:55:23;;;;;;;94.63;55.72;;;15.20;79.10;;;;;;4957390;28;89244;-58
2023/04/10 01:57:49;;;;;;;95.93;56.15;;;15.20;79.10;;;;;;4960980;28;90309;-58
2023/04/10 02:00:16;;;;;;;95.28;56.10;;;15.20;79.10;;;;;;4957808;28;89495;-57
2023/04/10 02:02:42;;;;;;;95.18;56.10;;;15.20;79.10;;;;;;4957891;28;90229;-58
2023/04/10 02:05:12;;;;;;;94.75;56.15;;;15.20;79.00;;;;;;4956157;28;90059;-48
2023/04/10 02:07:53;;;;;;;95.50;55.65;;;15.20;79.00;;;;;;4960521;28;89736;-58
2023/04/10 02:10:30;;;;;;;96.00;55.83;;;15.20;79.00;;;;;;4962673;28;89197;-57
2023/04/10 02:13:04;;;;;;;95.50;56.20;;;15.20;79.00;;;;;;4964043;28;89678;-59
2023/04/10 02:15:31;;;;;;;95.88;56.45;;;15.20;78.90;;;;;;4965682;28;90481;-58
2023/04/10 02:17:59;;;;;;;95.53;55.80;;;15.10;78.80;;;;;;4961253;28;90444;-58
2023/04/10 02:20:25;;;;;;;95.30;56.00;;;15.20;78.80;;;;;;4960015;28;90038;-56
2023/04/10 02:22:52;;;;;;;93.90;55.38;;;15.20;78.80;;;;;;4962241;28;89185;-53
2023/04/10 02:25:18;;;;;;;93.97;55.60;;;15.20;78.70;;;;;;4980205;28;89734;-59
2023/04/10 02:27:44;;;;;;;94.68;56.28;;;15.10;78.80;;;;;;4962901;28;89332;-59
2023/04/10 02:30:10;;;;;;;95.10;56.35;;;15.20;78.70;;;;;;4971878;28;89842;-56
2023/04/10 02:32:36;;;;;;;94.63;55.67;;;15.10;78.60;;;;;;4981597;28;90402;-56
2023/04/10 02:35:02;;;;;;;93.78;55.08;;;15.20;78.70;;;;;;4984952;28;88807;-55
2023/04/10 02:37:29;;;;;;;94.82;55.83;;;15.10;78.70;;;;;;4980850;28;89478;-58
2023/04/10 02:39:55;;;;;;;94.10;55.35;;;15.20;78.70;;;;;;4979852;28;90011;-54
2023/04/10 02:42:20;;;;;;;94.72;56.30;;;15.10;78.60;;;;;;4960897;28;90700;-54
2023/04/10 02:44:47;;;;;;;95.15;55.83;;;15.10;78.70;;;;;;4977159;28;89289;-58
2023/04/10 02:47:13;;;;;;;94.82;55.08;;;15.10;78.60;;;;;;4980447;28;89137;-59
2023/04/10 02:49:38;;;;;;;93.43;55.35;;;15.10;78.60;;;;;;4979888;28;89802;-58
2023/04/10 02:52:04;;;;;;;94.78;55.20;;;15.10;78.60;;;;;;4976611;28;89494;-58
2023/04/10 02:54:30;;;;;;;94.80;55.90;;;15.10;78.50;;;;;;4978598;28;89637;-53
2023/04/10 02:56:56;;;;;;;93.55;55.10;;;15.10;78.50;;;;;;4979807;28;90995;-54
2023/04/10 02:59:22;;;;;;;92.22;54.45;;;15.10;78.60;;;;;;4983784;28;88733;-53
2023/04/10 03:01:49;;;;;;;93.65;55.83;;;15.10;78.50;;;;;;4982979;28;89523;-51
2023/04/10 03:04:15;;;;;;;93.40;55.45;;;15.10;78.50;;;;;;4976339;28;90344;-58
2023/04/10 03:06:40;;;;;;;93.25;55.58;;;15.10;78.50;;;;;;4980299;28;90776;-52
2023/04/10 03:09:06;;;;;;;94.10;55.42;;;15.10;78.50;;;;;;4980028;28;90908;-49
2023/04/10 03:11:33;;;;;;;93.82;54.97;;;15.10;78.40;;;;;;4983510;28;89555;-58
2023/04/10 03:13:58;;;;;;;94.88;55.03;;;15.10;78.40;;;;;;4984336;28;89589;-59
2023/04/10 03:16:24;;;;;;;92.65;55.10;;;15.00;78.30;;;;;;4981384;28;90678;-58
2023/04/10 03:18:51;;;;;;;93.10;54.67;;;15.10;78.40;;;;;;4979915;28;90222;-58
2023/04/10 03:21:17;;;;;;;92.72;55.25;;;15.00;79.00;;;;;;4978231;28;89857;-57
2023/04/10 03:23:42;;;;;;;92.82;55.35;;;15.10;78.30;;;;;;4982267;28;88762;-58
2023/04/10 03:26:08;;;;;;;94.18;54.88;;;15.00;78.20;;;;;;4985429;28;89578;-51
2023/04/10 03:28:35;;;;;;;92.70;54.90;;;15.00;78.20;;;;;;4980627;28;89387;-57
2023/04/10 03:31:02;;;;;;;92.50;55.30;;;15.00;78.20;;;;;;4978882;28;90507;-53
2023/04/10 03:33:28;;;;;;;93.03;55.08;;;15.00;78.20;;;;;;4971545;28;89902;-57
2023/04/10 03:35:53;;;;;;;92.40;54.72;;;15.00;78.20;;;;;;4980779;28;89250;-58
2023/04/10 03:38:19;;;;;;;93.13;54.92;;;15.00;78.10;;;;;;4982337;28;89604;-58
2023/04/10 03:40:44;;;;;;;92.82;54.80;;;15.00;78.20;;;;;;4979298;28;89420;-58
2023/04/10 03:43:10;;;;;;;93.07;55.25;;;15.00;78.20;;;;;;4978244;28;89752;-58
2023/04/10 03:45:36;;;;;;;92.72;54.92;;;15.00;78.10;;;;;;4977206;28;90159;-54
2023/04/10 03:48:02;;;;;;;92.80;55.00;;;15.00;78.10;;;;;;4982526;28;89257;-59
2023/04/10 03:50:27;;;;;;;92.78;54.92;;;15.00;78.10;;;;;;4984463;28;89898;-57
2023/04/10 03:52:53;;;;;;;93.70;54.78;;;15.00;78.00;;;;;;4982930;28;89244;-58
2023/04/10 03:55:19;;;;;;;91.05;54.13;;;15.00;78.10;;;;;;4975238;28;90976;-59
2023/04/10 03:57:46;;;;;;;92.35;55.38;;;15.00;78.10;;;;;;4985113;28;90737;-58
2023/04/10 04:00:13;;;;;;;93.00;55.17;;;15.00;78.00;;;;;;4983672;28;89468;-58
2023/04/10 04:02:39;;;;;;;92.97;54.92;;;15.00;78.00;;;;;;4979531;28;89284;-58
2023/04/10 04:05:05;;;;;;;91.03;54.00;;;15.00;77.90;;;;;;4962160;28;91034;-59
2023/04/10 04:07:31;;;;;;;92.22;54.92;;;14.90;77.80;;;;;;4981529;28;89276;-50
2023/04/10 04:09:57;;;;;;;92.35;55.15;;;15.00;78.00;;;;;;4964079;28;89685;-59
2023/04/10 04:12:23;;;;;;;92.38;54.20;;;14.90;77.90;;;;;;4981531;28;89096;-48
2023/04/10 04:14:48;;;;;;;92.63;54.63;;;15.00;77.90;;;;;;4952331;28;98248;-58
2023/04/10 04:17:14;;;;;;;92.50;54.25;;;14.90;77.90;;;;;;4982347;28;91226;-48
2023/04/10 04:19:40;;;;;;;92.45;54.42;;;14.90;77.90;;;;;;4973031;28;91752;-54
2023/04/10 04:22:06;;;;;;;91.78;54.55;;;15.00;77.90;;;;;;4972100;28;89912;-52
2023/04/10 04:24:31;;;;;;;92.18;54.13;;;15.00;77.90;;;;;;4973199;28;90287;-58
2023/04/10 04:26:57;;;;;;;91.20;54.47;;;14.90;77.80;;;;;;4959971;28;90107;-59
2023/04/10 04:29:23;;;;;;;92.55;55.00;;;14.90;77.80;;;;;;4977880;28;89863;-55
2023/04/10 04:31:49;;;;;;;91.78;54.65;;;14.90;77.80;;;;;;4973319;28;89534;-58
2023/04/10 04:34:15;;;;;;;92.30;54.90;;;14.90;77.80;;;;;;4966652;28;89665;-59
2023/04/10 04:36:41;;;;;;;91.47;53.78;;;14.90;77.80;;;;;;4969046;28;89864;-52
2023/04/10 04:39:07;;;;;;;91.68;54.10;;;14.90;77.70;;;;;;4952771;28;90258;-58
2023/04/10 04:41:32;;;;;;;92.18;54.60;;;14.90;77.80;;;;;;4970770;28;89511;-59
2023/04/10 04:44:04;;;;;;;91.18;54.28;;;14.90;77.80;;;;;;4976697;28;90855;-58
2023/04/10 04:46:29;;;;;;;91.85;54.30;;;14.90;77.80;;;;;;4976630;28;92348;-58
2023/04/10 04:48:55;;;;;;;92.75;54.95;;;14.90;77.70;;;;;;4959156;28;90344;-56
2023/04/10 04:51:21;;;;;;;90.97;53.95;;;14.90;77.70;;;;;;4974514;28;92353;-56
2023/04/10 04:53:46;;;;;;;92.28;54.47;;;14.90;77.80;;;;;;4981315;28;89914;-58
2023/04/10 04:56:12;;;;;;;90.78;54.17;;;14.90;77.80;;;;;;4983457;28;89591;-58
2023/04/10 04:58:38;;;;;;;92.07;54.17;;;14.90;77.70;;;;;;4983616;28;89586;-57
2023/04/10 05:01:04;;;;;;;91.82;54.22;;;14.90;77.70;;;;;;4974754;28;89083;-58
2023/04/10 05:03:30;;;;;;;92.45;54.28;;;14.90;77.70;;;;;;4974609;28;91337;-57
2023/04/10 05:05:57;;;;;;;92.13;54.75;;;14.90;77.80;;;;;;4975224;28;89348;-56
2023/04/10 05:08:22;;;;;;;91.57;54.65;;;14.90;77.70;;;;;;4981600;28;90268;-49
2023/04/10 05:10:48;;;;;;;90.95;54.67;;;14.90;77.70;;;;;;4980663;28;90429;-57
2023/04/10 05:13:16;;;;;;;91.50;54.80;;;14.90;77.70;;;;;;4960510;28;89513;-57
2023/04/10 05:15:45;;;;;;;91.53;54.08;;;14.90;77.70;;;;;;4969773;28;90625;-58
2023/04/10 05:18:12;;;;;;;90.90;53.97;;;14.90;77.80;;;;;;4976041;28;89799;-53
2023/04/10 05:20:38;;;;;;;91.55;54.60;;;14.80;77.60;;;;;;4980088;28;90084;-57
2023/04/10 05:23:04;;;;;;;91.88;54.63;;;14.90;77.80;;;;;;4976631;28;89352;-58
2023/04/10 05:25:30;;;;;;;90.88;54.20;;;14.80;77.70;;;;;;4975997;28;90379;-54
2023/04/10 05:27:55;;;;;;;92.03;54.63;;;14.80;77.60;;;;;;4974255;28;89479;-58
2023/04/10 05:30:21;;;;;;;91.85;54.22;;;14.80;77.60;;;;;;4968403;28;89596;-58
2023/04/10 05:32:47;;;;;;;92.45;54.72;;;14.80;77.60;;;;;;4977501;28;91151;-54
2023/04/10 05:35:13;;;;;;;90.97;54.05;;;14.80;77.60;;;;;;4974924;28;90260;-56
2023/04/10 05:37:38;;;;;;;91.30;53.75;;;14.80;77.60;;;;;;4980643;28;89767;-49
2023/04/10 05:40:06;;;;;;;90.70;53.80;;;14.80;77.60;;;;;;4978392;28;90589;-59
2023/04/10 05:42:32;;;;;;;91.65;54.08;;;14.80;77.60;;;;;;4974666;28;89699;-57
2023/04/10 05:44:57;;;;;;;91.22;54.30;;;14.80;77.70;;;;;;4980021;28;89904;-54
2023/04/10 05:47:23;;;;;;;91.03;54.17;;;14.80;77.60;;;;;;4982192;28;89686;-48
2023/04/10 05:49:48;;;;;;;91.15;54.58;;;14.80;77.60;;;;;;4972683;28;89440;-55
2023/04/10 05:52:14;;;;;;;91.43;54.20;;;14.80;77.60;;;;;;4981717;28;89642;-50
2023/04/10 05:54:40;;;;;;;91.97;54.35;;;14.80;77.50;;;;;;4967976;28;89588;-48
2023/04/10 05:57:06;;;;;;;91.28;54.10;;;14.80;77.60;;;;;;4967661;28;92294;-48
2023/04/10 05:59:31;;;;;;;91.13;54.15;;;14.80;77.60;;;;;;4979872;28;92252;-47
2023/04/10 06:01:57;;;;;;;91.43;54.30;;;14.80;77.60;;;;;;4971971;28;96012;-47
2023/04/10 06:04:23;;;;;;;90.95;54.13;;;14.80;77.50;;;;;;4967613;28;90161;-57
2023/04/10 06:06:48;;;;;;;90.95;53.63;;;14.80;77.50;;;;;;4965319;28;90523;-59
2023/04/10 06:09:14;;;;;;;90.28;53.30;;;14.80;77.50;;;;;;4967536;28;92664;-50
2023/04/10 06:11:40;;;;;;;91.30;54.00;;;14.80;77.50;;;;;;4973558;28;90538;-51
2023/04/10 06:14:06;;;;;;;90.65;53.78;;;14.80;77.50;;;;;;4967293;28;89946;-58
2023/04/10 06:16:31;;;;;;;90.15;53.78;;;14.80;77.50;;;;;;4978286;28;90654;-58
2023/04/10 06:18:57;;;;;;;90.97;54.03;;;14.80;77.50;;;;;;4983386;28;89499;-57
2023/04/10 06:21:23;;;;;;;90.63;54.17;;;14.80;77.50;;;;;;4976133;28;90708;-52
2023/04/10 06:23:48;;;;;;;91.50;54.13;;;14.70;77.40;;;;;;4981086;28;89753;-58
2023/04/10 06:26:14;;;;;;;90.85;54.35;;;14.80;77.50;;;;;;4980883;28;91556;-55
2023/04/10 06:28:41;;;;;;;90.00;53.60;;;14.80;77.50;;;;;;4977895;28;89943;-56
2023/04/10 06:31:06;;;;;;;90.57;53.63;;;14.80;77.50;;;;;;4975549;28;90699;-56
2023/04/10 06:33:34;;;;;;;90.45;53.92;;;14.80;77.50;;;;;;4974796;28;90530;-58
2023/04/10 06:36:01;;;;;;;90.15;53.38;;;14.80;77.50;;;;;;4967048;28;89162;-51
2023/04/10 06:38:27;;;;;;;90.68;53.45;;;14.80;77.40;;;;;;4984897;28;89277;-56
2023/04/10 06:40:52;;;;;;;91.18;53.72;;;14.80;77.40;;;;;;4973286;28;89924;-59
2023/04/10 06:43:18;;;;;;;90.90;54.03;;;14.80;77.40;;;;;;4979147;28;94579;-58
2023/04/10 06:45:44;;;;;;;90.50;54.05;;;14.80;77.30;;;;;;4976350;28;91809;-55
2023/04/10 06:48:11;;;;;;;91.28;53.92;;;14.80;77.40;;;;;;4982415;28;89884;-58
2023/04/10 06:50:37;;;;;;;89.95;53.63;;;14.80;77.30;;;;;;4976950;28;89715;-58
2023/04/10 06:53:03;;;;;;;90.35;53.83;;;14.80;77.30;;;;;;4978556;28;89199;-58
2023/04/10 06:55:29;;;;;;;90.47;54.13;;;14.80;77.30;;;;;;4978911;28;89949;-59
2023/04/10 06:57:55;;;;;;;90.80;53.95;;;14.80;77.30;;;;;;4979316;28;90016;-57
2023/04/10 07:00:21;;;;;;;91.00;54.03;;;14.80;77.40;;;;;;4961843;28;89679;-56
2023/04/10 07:02:47;;;;;;;90.40;53.65;;;14.80;77.40;;;;;;4984313;28;89098;-57
2023/04/10 07:05:13;;;;;;;90.45;53.70;;;14.80;77.30;;;;;;4969819;28;89420;-51
2023/04/10 07:07:39;;;;;;;90.72;53.60;;;14.80;77.30;;;;;;4976218;28;89482;-58
2023/04/10 07:10:06;;;;;;;90.40;53.60;;;14.80;77.30;;;;;;4975082;28;90922;-58
2023/04/10 07:12:32;;;;;;;91.93;53.78;;;14.80;77.30;;;;;;4975696;28;90989;-58
2023/04/10 07:14:57;;;;;;;90.60;53.70;;;14.80;77.30;;;;;;4982094;28;89524;-52
2023/04/10 07:17:23;;;;;;;90.65;53.67;;;14.80;77.20;;;;;;4977453;28;89559;-56
2023/04/10 07:19:49;;;;;;;91.20;53.90;;;14.80;77.40;;;;;;4972906;28;90999;-52
2023/04/10 07:22:15;;;;;;;90.78;53.63;;;14.80;77.30;;;;;;4980086;28;90151;-57
2023/04/10 07:24:41;;;;;;;90.18;53.50;;;14.70;77.20;;;;;;4980291;28;88932;-51
2023/04/10 07:27:06;;;;;;;90.28;53.53;;;14.80;77.30;;;;;;4978051;28;88901;-59
2023/04/10 07:29:32;;;;;;;90.93;54.15;;;14.80;77.30;;;;;;4978819;28;91289;-59
2023/04/10 07:31:58;;;;;;;90.45;54.03;;;14.80;77.30;;;;;;4974213;28;91115;-59
2023/04/10 07:34:24;;;;;;;90.05;53.88;;;14.80;77.40;;;;;;4977528;28;91281;-55
2023/04/10 07:36:50;;;;;;;90.40;53.83;;;14.80;77.40;;;;;;4973577;28;91279;-58
2023/04/10 07:39:16;;;;;;;90.38;53.53;;;14.80;77.40;;;;;;4980072;28;89488;-49
2023/04/10 07:41:42;;;;;;;90.43;53.53;;;14.80;77.40;;;;;;4982026;28;89003;-59
2023/04/10 07:44:08;;;;;;;89.93;53.45;;;14.80;77.50;;;;;;4976946;28;90885;-57
2023/04/10 07:46:34;;;;;;;90.53;53.75;;;14.80;77.50;;;;;;4977006;28;91617;-56
2023/04/10 07:48:59;;;;;;;90.70;53.88;;;14.80;77.50;;;;;;4978879;28;92055;-57
2023/04/10 07:51:26;;;;;;;90.30;53.47;;;14.80;77.60;;;;;;4972287;28;89074;-58
2023/04/10 07:53:52;;;;;;;90.55;53.70;;;14.80;77.40;;;;;;4975014;28;89797;-58
2023/04/10 07:56:18;;;;;;;90.53;53.50;;;14.80;77.50;;;;;;4978864;28;92926;-59
2023/04/10 07:58:45;;;;;;;91.00;53.83;;;14.80;77.50;;;;;;4973255;28;91240;-47
2023/04/10 08:01:11;;;;;;;90.93;54.03;;;14.80;77.50;;;;;;4978767;28;90036;-54
2023/04/10 08:03:41;;;;;;;91.18;53.85;;;14.80;77.40;;;;;;4969023;28;90305;-50
2023/04/10 08:06:08;;;;;;;91.20;54.22;;;14.80;77.50;;;;;;4976040;28;90454;-58
2023/04/10 08:08:38;;;;;;;92.57;54.17;;;14.80;77.40;;;;;;4981115;28;89575;-51
2023/04/10 08:11:20;;;;;;;93.15;54.92;;;14.80;77.50;;;;;;4955272;28;91566;-55
2023/04/10 08:13:46;;;;;;;91.05;53.88;;;14.80;77.50;;;;;;4977949;28;89606;-50
2023/04/10 08:16:11;;;;;;;91.18;53.78;;;14.80;77.30;;;;;;4980952;28;89116;-54
2023/04/10 08:18:37;;;;;;;91.82;54.22;;;14.80;77.50;;;;;;4978141;28;89551;-57
2023/04/10 08:21:03;;;;;;;90.95;54.15;;;14.80;77.40;;;;;;4980952;28;89577;-55
2023/04/10 08:23:28;;;;;;;90.47;53.90;;;14.80;77.50;;;;;;4982265;28;90796;-56
2023/04/10 08:25:54;;;;;;;91.85;53.83;;;14.90;77.50;;;;;;4966719;28;89682;-57
2023/04/10 08:28:20;;;;;;;90.70;53.67;;;14.80;77.40;;;;;;4980070;28;89863;-55
2023/04/10 08:30:45;;;;;;;90.88;53.72;;;14.90;77.40;;;;;;4958446;28;91047;-56
2023/04/10 08:33:11;;;;;;;90.72;53.80;;;14.90;77.40;;;;;;4960567;28;89471;-57
2023/04/10 08:35:37;;;;;;;91.57;54.08;;;14.90;77.50;;;;;;4977464;28;90034;-57
2023/04/10 08:38:02;;;;;;;90.90;53.78;;;14.90;77.50;;;;;;4981421;28;90438;-58
2023/04/10 08:40:28;;;;;;;91.07;54.10;;;14.90;77.50;;;;;;4979688;28;89263;-56
2023/04/10 08:42:54;;;;;;;91.20;54.22;;;14.90;77.80;;;;;;4979014;28;89408;-56
2023/04/10 08:45:25;;;;;;;91.20;53.83;;;14.90;77.80;;;;;;4979164;28;89550;-56
2023/04/10 08:47:53;;;;;;;90.55;53.88;;;14.90;77.70;;;;;;4979283;28;90966;-58
2023/04/10 08:50:19;;;;;;;91.45;53.83;;;14.90;77.70;;;;;;4974901;28;90434;-54
2023/04/10 08:52:50;;;;;;;91.75;54.10;;;14.90;77.70;;;;;;4977693;28;89558;-58
2023/04/10 08:55:16;;;;;;;92.05;53.67;;;14.90;77.70;;;;;;4978637;28;89429;-58
2023/04/10 08:57:43;;;;;;;92.93;54.13;;;14.90;77.80;;;;;;4979872;28;89614;-49
2023/04/10 09:00:09;;;;;;;90.93;53.95;;;14.90;77.80;;;;;;4975058;28;89484;-47
2023/04/10 09:02:38;;;;;;;90.88;53.83;;;14.90;77.80;;;;;;4978046;28;89344;-57
2023/04/10 09:05:05;;;;;;;91.22;53.70;;;14.90;78.10;;;;;;4963271;28;88712;-55
2023/04/10 09:07:31;;;;;;;91.47;53.92;;;14.90;78.00;;;;;;4981463;28;89544;-57
2023/04/10 09:09:57;;;;;;;90.93;54.00;;;15.00;78.00;;;;;;4950636;28;90313;-56
2023/04/10 09:12:22;;;;;;;90.80;53.47;;;14.90;78.00;;;;;;4952194;28;91579;-58
2023/04/10 09:14:52;;;;;;;92.05;54.15;;;15.00;78.00;;;;;;4979396;28;89569;-56
2023/04/10 09:17:23;;;;;;;91.10;53.90;;;15.00;77.90;;;;;;4964380;28;91289;-56
2023/04/10 09:19:54;;;;;;;91.50;53.95;;;15.00;77.90;;;;;;4976856;28;89638;-49
2023/04/10 09:22:33;;;;;;;91.72;53.95;;;15.00;78.60;;;;;;4965142;28;89686;-57
2023/04/10 09:25:01;;;;;;;91.53;53.78;;;15.00;77.90;;;;;;4976526;28;90025;-58
2023/04/10 09:27:31;;;;;;;91.07;53.65;;;15.00;77.90;;;;;;4983265;28;89437;-51
2023/04/10 09:29:57;;;;;;;90.57;53.53;;;15.00;77.30;;;;;;4975286;28;90696;-56
2023/04/10 09:32:43;;;;;;;90.40;53.38;;;15.00;77.80;;;;;;4976374;28;89286;-57
2023/04/10 09:35:10;;;;;;;90.82;53.47;;;15.00;77.80;;;;;;4957913;28;90402;-56
2023/04/10 09:37:37;;;;;;;91.25;54.15;;;15.00;77.90;;;;;;4976593;28;95275;-58
2023/04/10 09:40:04;;;;;;;91.50;54.03;;;15.00;77.70;;;;;;4951700;28;90510;-58
2023/04/10 09:42:38;;;;;;;91.53;53.97;;;15.00;77.70;;;;;;4968971;28;90202;-60
2023/04/10 09:45:05;;;;;;;91.18;53.65;;;15.00;77.60;;;;;;4978449;28;89209;-58
2023/04/10 09:47:31;;;;;;;92.32;54.20;;;15.00;77.60;;;;;;4970434;28;90139;-52
2023/04/10 09:49:59;;;;;;;93.90;54.50;;;15.10;78.50;;;;;;4962650;28;89438;-56
2023/04/10 09:52:30;;;;;;;92.18;53.70;;;15.10;79.10;;;;;;4966187;28;89300;-61
2023/04/10 09:54:56;;;;;;;93.03;54.22;;;15.20;79.40;;;;;;4956559;28;90553;-62
2023/04/10 09:57:24;;;;;;;92.32;54.33;;;15.10;79.50;;;;;;4971477;28;90647;-59
2023/04/10 09:59:52;;;;;;;94.90;54.65;;;15.20;80.00;;;;;;4970526;28;90402;-61
2023/04/10 10:02:19;;;;;;;94.35;54.75;;;15.20;79.90;;;;;;4973532;28;91589;-61
2023/04/10 10:04:47;;;;;;;94.63;54.65;;;15.20;79.90;;;;;;4968908;28;89115;-53
2023/04/10 10:07:15;;;;;;;96.75;54.55;;;15.30;80.00;;;;;;4974059;28;90363;-62
2023/04/10 10:09:42;;;;;;;94.85;54.72;;;15.30;80.10;;;;;;4976143;28;89485;-51
2023/04/10 10:12:11;;;;;;;93.57;54.83;;;15.30;80.20;;;;;;4977592;28;90041;-60
2023/04/10 10:14:46;;;;;;;95.55;54.85;;;15.30;80.20;;;;;;4970222;28;92672;-60
2023/04/10 10:17:17;;;;;;;96.75;54.53;;;15.30;80.20;;;;;;4970341;28;95150;-52
2023/04/10 10:20:04;;;;;;;97.13;54.97;;;15.40;80.30;;;;;;4972946;28;89994;-57
2023/04/10 10:22:31;;;;;;;95.30;54.85;;;15.40;80.30;;;;;;4971049;28;90708;-55
2023/04/10 10:24:59;;;;;;;97.38;54.90;;;15.40;80.30;;;;;;4971402;28;91355;-61
2023/04/10 10:27:27;;;;;;;95.05;54.53;;;15.40;80.30;;;;;;4954395;28;91350;-53
2023/04/10 10:29:54;;;;;;;94.07;54.53;;;15.40;80.30;;;;;;4977147;28;90221;-60
2023/04/10 10:32:21;;;;;;;95.20;54.72;;;15.40;80.40;;;;;;4973235;28;90492;-61
2023/04/10 10:34:50;;;;;;;95.07;54.53;;;15.40;80.20;;;;;;4974323;28;89459;-53
2023/04/10 10:37:17;;;;;;;94.07;54.55;;;15.50;80.30;;;;;;4976440;28;90554;-60
2023/04/10 10:39:52;;;;;;;95.63;55.33;;;15.50;80.20;;;;;;4973996;28;91165;-51
2023/04/10 10:42:52;;;;;;;94.93;54.88;;;15.50;80.20;;;;;;4975665;28;90237;-60
2023/04/10 10:45:24;;;;;;;94.78;54.35;;;15.50;80.10;;;;;;4978621;28;89756;-58
2023/04/10 10:47:53;;;;;;;95.32;55.03;;;15.50;80.10;;;;;;4979944;28;91271;-61
2023/04/10 10:50:21;;;;;;;96.25;54.78;;;15.50;80.00;;;;;;4975481;28;89599;-52
2023/04/10 10:52:52;;;;;;;98.15;55.10;;;15.50;80.00;;;;;;4972851;28;95796;-57
2023/04/10 10:55:21;;;;;;;97.28;55.03;;;15.50;79.90;;;;;;4972245;28;89444;-59
2023/04/10 10:57:48;;;;;;;96.53;55.63;;;15.50;80.00;;;;;;4973075;28;89626;-51
2023/04/10 11:00:18;;;;;;;98.22;55.72;;;15.50;80.10;;;;;;4980498;28;89772;-60
2023/04/10 11:02:44;;;;;;;102.53;55.75;;;15.50;80.20;;;;;;4981459;28;90222;-60
2023/04/10 11:05:10;;;;;;;102.20;56.20;;;15.60;81.10;;;;;;4980771;28;89598;-60
2023/04/10 11:07:57;;;;;;;101.30;56.47;;;15.50;82.00;;;;;;4976072;28;90061;-60
2023/04/10 11:11:01;;;;;;;100.63;56.13;;;15.60;82.40;;;;;;4982812;28;90042;-60
2023/04/10 11:13:27;;;;;;;100.93;55.92;;;15.50;82.20;;;;;;4978276;28;89898;-55
2023/04/10 11:15:56;;;;;;;100.97;56.33;;;15.60;82.00;;;;;;4975718;28;89655;-58
2023/04/10 11:18:43;;;;;;;98.18;55.83;;;15.60;81.60;;;;;;4973042;28;90561;-58
2023/04/10 11:21:12;;;;;;;96.72;55.80;;;15.60;81.40;;;;;;4979641;28;90179;-59
2023/04/10 11:23:58;;;;;;;99.20;55.83;;;15.60;81.20;;;;;;4958731;28;94222;-57
2023/04/10 11:26:37;;;;;;;97.57;55.53;;;15.60;81.00;;;;;;4960622;28;90070;-56
2023/04/10 11:29:09;;;;;;;99.60;55.90;;;15.60;80.90;;;;;;4969661;28;89116;-53
2023/04/10 11:31:35;;;;;;;98.00;55.45;;;15.60;80.90;;;;;;4959614;28;90522;-55
2023/04/10 11:34:03;;;;;;;101.40;56.47;;;15.60;80.90;;;;;;4963057;28;90779;-58
2023/04/10 11:36:31;;;;;;;101.22;56.40;;;15.60;81.80;;;;;;4963719;28;88466;-58
2023/04/10 11:38:59;;;;;;;103.40;56.13;;;15.70;83.30;;;;;;4957433;28;89881;-59
2023/04/10 11:41:30;;;;;;;102.05;55.83;;;15.70;83.70;;;;;;4960860;28;92449;-60
2023/04/10 11:43:57;;;;;;;98.30;56.00;;;15.70;84.10;;;;;;4959679;28;90363;-56
2023/04/10 11:46:26;;;;;;;103.13;56.30;;;15.70;84.20;;;;;;4961931;28;90320;-50
2023/04/10 11:49:00;;;;;;;105.70;55.88;;;15.70;85.10;;;;;;4961211;28;94809;-54
2023/04/10 11:51:27;;;;;;;99.82;55.75;;;15.70;85.30;;;;;;4959810;28;94639;-56
2023/04/10 11:54:11;;;;;;;106.18;55.65;;;15.80;85.30;;;;;;4959810;28;94436;-56
2023/04/10 11:56:39;;;;;;;103.60;56.00;;;15.70;85.70;;;;;;4963857;28;90730;-61
2023/04/10 11:59:08;;;;;;;103.25;56.22;;;15.80;85.40;;;;;;4959099;28;91019;-55
2023/04/10 12:01:34;;;;;;;99.47;56.80;;;15.70;85.70;;;;;;4959869;28;89814;-49
2023/04/10 12:04:00;;;;;;;108.38;56.38;;;15.70;85.60;;;;;;4972154;28;89950;-52
2023/04/10 12:06:26;;;;;;;102.43;56.63;;;15.80;88.60;;;;;;4978277;28;89796;-51
2023/04/10 12:08:53;;;;;;;116.32;57.47;;;15.90;89.40;;;;;;4969505;28;91358;-61
2023/04/10 12:11:21;;;;;;;105.50;57.35;;;15.90;90.10;;;;;;4968704;28;91312;-61
2023/04/10 12:13:50;;;;;;;106.15;57.13;;;15.90;90.30;;;;;;4975682;28;89654;-46
2023/04/10 12:16:16;;;;;;;102.25;56.83;;;16.00;90.30;;;;;;4976349;28;89496;-42
2023/04/10 12:18:44;;;;;;;105.75;57.03;;;15.90;90.30;;;;;;4980497;28;89486;-57
2023/04/10 12:21:13;;;;;;;108.03;56.83;;;15.90;90.40;;;;;;4972646;28;89938;-60
2023/04/10 12:23:39;;;;;;;105.82;56.53;;;15.90;90.40;;;;;;4954594;28;89819;-59
2023/04/10 12:26:16;;;;;;;106.75;57.20;;;15.90;90.30;;;;;;4974749;28;88541;-60
2023/04/10 12:28:51;;;;;;;107.13;57.50;;;16.00;90.20;;;;;;4972662;28;89378;-60